createdAt,value
2023-03-06T00:02:23.772Z,90.44
2023-03-06T00:04:51.016Z,89.44
2023-03-06T00:07:18.197Z,88.97
2023-03-06T00:09:45.370Z,87.88
2023-03-06T00:12:12.567Z,87.66
2023-03-06T00:14:39.790Z,88.01
2023-03-06T00:17:07.037Z,88.09
2023-03-06T00:19:34.272Z,88.27
2023-03-06T00:22:03.208Z,88.92
2023-03-06T00:24:30.383Z,88.56
2023-03-06T00:26:57.704Z,89.82
2023-03-06T00:29:24.972Z,91.93
2023-03-06T00:31:52.152Z,91.91
2023-03-06T00:34:19.400Z,91.64
2023-03-06T00:36:46.840Z,90.92
2023-03-06T00:39:14.209Z,90.05
2023-03-06T00:41:41.399Z,90.19
2023-03-06T00:44:08.950Z,90.21
2023-03-06T00:46:36.202Z,91.90
2023-03-06T00:49:03.720Z,92.68
2023-03-06T00:51:30.987Z,92.58
2023-03-06T00:54:06.622Z,93.23
2023-03-06T00:56:34.022Z,93.30
2023-03-06T00:59:01.176Z,91.85
2023-03-06T01:01:29.297Z,92.88
2023-03-06T01:03:56.466Z,93.73
2023-03-06T01:06:23.687Z,94.00
2023-03-06T01:10:04.115Z,91.83
2023-03-06T01:12:31.220Z,90.82
2023-03-06T01:14:58.308Z,90.09
2023-03-06T01:17:25.511Z,88.79
2023-03-06T01:19:52.646Z,88.90
2023-03-06T01:22:19.732Z,90.86
2023-03-06T01:24:46.825Z,91.43
2023-03-06T01:27:14.490Z,91.78
2023-03-06T01:29:43.989Z,92.14
2023-03-06T01:32:11.127Z,91.86
2023-03-06T01:34:38.196Z,91.41
2023-03-06T01:37:05.357Z,91.39
2023-03-06T01:39:32.495Z,92.04
2023-03-06T01:41:59.581Z,91.40
2023-03-06T01:44:26.758Z,91.53
2023-03-06T01:46:53.957Z,91.96
2023-03-06T01:49:23.923Z,92.12
2023-03-06T01:52:02.022Z,92.46
2023-03-06T01:54:34.311Z,92.04
2023-03-06T01:57:06.996Z,92.19
2023-03-06T01:59:38.053Z,92.71
2023-03-06T02:02:08.392Z,92.63
2023-03-06T02:04:38.917Z,92.70
2023-03-06T02:07:07.468Z,92.65
2023-03-06T02:09:36.340Z,92.46
2023-03-06T02:12:09.087Z,92.50
2023-03-06T02:14:36.469Z,92.40
2023-03-06T02:17:04.002Z,92.90
2023-03-06T02:19:50.483Z,92.87
2023-03-06T02:22:20.629Z,93.54
2023-03-06T02:24:58.914Z,93.42
2023-03-06T02:27:27.073Z,93.17
2023-03-06T02:29:56.392Z,92.87
2023-03-06T02:32:23.695Z,92.84
2023-03-06T02:34:56.774Z,92.89
2023-03-06T02:37:26.612Z,93.19
2023-03-06T02:40:02.930Z,93.31
2023-03-06T02:42:30.243Z,93.28
2023-03-06T02:45:00.958Z,93.30
2023-03-06T02:47:28.085Z,93.73
2023-03-06T02:49:55.480Z,94.01
2023-03-06T02:52:22.716Z,93.88
2023-03-06T02:54:49.833Z,93.09
2023-03-06T02:57:17.484Z,92.94
2023-03-06T02:59:45.207Z,93.53
2023-03-06T03:02:12.352Z,93.44
2023-03-06T03:04:39.602Z,93.66
2023-03-06T03:07:08.182Z,93.17
2023-03-06T03:09:37.152Z,93.10
2023-03-06T03:12:06.952Z,93.37
2023-03-06T03:14:34.530Z,93.57
2023-03-06T03:17:03.394Z,94.22
2023-03-06T03:19:30.585Z,94.84
2023-03-06T03:21:58.012Z,94.87
2023-03-06T03:24:25.487Z,95.48
2023-03-06T03:26:52.834Z,95.75
2023-03-06T03:29:22.758Z,95.30
2023-03-06T03:31:49.910Z,94.97
2023-03-06T03:34:18.857Z,94.47
2023-03-06T03:36:46.602Z,94.86
2023-03-06T03:39:15.130Z,95.07
2023-03-06T03:41:43.101Z,94.95
2023-03-06T03:44:11.322Z,95.25
2023-03-06T03:46:38.831Z,94.77
2023-03-06T03:49:11.453Z,93.74
2023-03-06T03:51:38.977Z,93.75
2023-03-06T03:54:06.801Z,94.45
2023-03-06T03:56:40.636Z,94.06
2023-03-06T03:59:12.978Z,95.11
2023-03-06T04:01:48.364Z,95.23
2023-03-06T04:04:15.844Z,95.62
2023-03-06T04:06:44.951Z,96.55
2023-03-06T04:09:13.248Z,96.44
2023-03-06T04:11:40.387Z,97.13
2023-03-06T04:14:09.680Z,96.93
2023-03-06T04:16:37.119Z,97.13
2023-03-06T04:19:04.401Z,97.33
2023-03-06T04:21:32.014Z,97.33
2023-03-06T04:23:59.697Z,96.66
2023-03-06T04:26:26.999Z,96.46
2023-03-06T04:28:55.609Z,95.75
2023-03-06T04:31:23.135Z,96.19
2023-03-06T04:33:50.368Z,97.27
2023-03-06T04:36:31.758Z,98.25
2023-03-06T04:39:04.224Z,98.90
2023-03-06T04:41:33.192Z,98.72
2023-03-06T04:44:00.373Z,98.88
2023-03-06T04:46:27.439Z,99.34
2023-03-06T04:48:54.535Z,99.13
2023-03-06T04:51:21.774Z,98.69
2023-03-06T04:53:48.894Z,98.15
2023-03-06T04:56:15.985Z,97.84
2023-03-06T04:58:44.074Z,97.45
2023-03-06T05:01:11.936Z,97.30
2023-03-06T05:03:39.092Z,97.37
2023-03-06T05:06:06.534Z,97.17
2023-03-06T05:08:33.602Z,97.46
2023-03-06T05:11:02.172Z,97.11
2023-03-06T05:13:29.348Z,96.39
2023-03-06T05:16:02.243Z,95.62
2023-03-06T05:18:29.470Z,96.87
2023-03-06T05:20:59.461Z,97.81
2023-03-06T05:23:27.767Z,97.83
2023-03-06T05:25:54.856Z,96.78
2023-03-06T05:28:22.088Z,96.54
2023-03-06T05:30:49.546Z,96.28
2023-03-06T05:33:16.629Z,96.40
2023-03-06T05:35:46.585Z,96.46
2023-03-06T05:38:16.013Z,95.82
2023-03-06T05:40:44.086Z,95.26
2023-03-06T05:43:12.262Z,95.06
2023-03-06T05:45:40.590Z,94.93
2023-03-06T05:48:08.721Z,94.77
2023-03-06T05:50:35.812Z,94.42
2023-03-06T05:53:03.368Z,94.91
2023-03-06T05:55:30.849Z,94.25
2023-03-06T05:57:58.001Z,94.17
2023-03-06T06:00:25.199Z,94.46
2023-03-06T06:02:52.299Z,93.98
2023-03-06T06:05:19.409Z,92.10
2023-03-06T06:07:46.535Z,92.20
2023-03-06T06:10:13.675Z,92.16
2023-03-06T06:12:40.851Z,91.78
2023-03-06T06:15:19.052Z,91.70
2023-03-06T06:17:46.146Z,92.04
2023-03-06T06:20:13.784Z,91.51
2023-03-06T06:22:41.149Z,91.43
2023-03-06T06:25:08.455Z,91.70
2023-03-06T06:27:35.595Z,91.05
2023-03-06T06:30:03.739Z,91.06
2023-03-06T06:32:30.905Z,91.25
2023-03-06T06:34:58.079Z,89.84
2023-03-06T06:37:26.032Z,90.10
2023-03-06T06:39:53.169Z,90.56
2023-03-06T06:42:31.435Z,90.60
2023-03-06T06:45:05.058Z,90.38
2023-03-06T06:47:34.151Z,90.37
2023-03-06T06:50:01.391Z,91.67
2023-03-06T06:52:28.560Z,90.76
2023-03-06T06:54:55.723Z,90.18
2023-03-06T06:57:22.840Z,89.36
2023-03-06T06:59:52.404Z,88.19
2023-03-06T07:02:20.967Z,88.04
2023-03-06T07:05:02.541Z,87.47
2023-03-06T07:07:31.788Z,87.38
2023-03-06T07:09:58.879Z,86.59
2023-03-06T07:12:26.059Z,85.25
2023-03-06T07:14:53.161Z,85.82
2023-03-06T07:17:20.252Z,86.01
2023-03-06T07:19:48.133Z,83.39
2023-03-06T07:22:15.434Z,84.30
2023-03-06T07:24:42.590Z,84.55
2023-03-06T07:27:09.790Z,84.29
2023-03-06T07:29:36.879Z,84.43
2023-03-06T07:32:04.153Z,83.81
2023-03-06T07:34:31.625Z,83.10
2023-03-06T07:36:58.719Z,82.35
2023-03-06T07:39:27.966Z,80.99
2023-03-06T07:41:55.058Z,80.38
2023-03-06T07:44:22.388Z,79.31
2023-03-06T07:46:49.548Z,78.31
2023-03-06T07:49:17.403Z,77.28
2023-03-06T07:51:44.999Z,75.63
2023-03-06T07:54:12.164Z,73.81
2023-03-06T07:56:39.221Z,73.86
2023-03-06T07:59:06.357Z,73.91
2023-03-06T08:01:33.444Z,72.66
2023-03-06T08:04:01.935Z,70.33
2023-03-06T08:06:29.102Z,70.00
2023-03-06T08:08:56.862Z,68.33
2023-03-06T08:11:26.447Z,68.90
2023-03-06T08:13:55.060Z,66.14
2023-03-06T08:16:27.703Z,63.29
2023-03-06T08:18:55.520Z,64.16
2023-03-06T08:21:27.278Z,64.39
2023-03-06T08:23:54.490Z,63.89
2023-03-06T08:26:30.334Z,63.85
2023-03-06T08:29:00.208Z,63.94
2023-03-06T08:31:41.362Z,63.04
2023-03-06T08:34:14.199Z,62.97
2023-03-06T08:36:44.752Z,61.95
2023-03-06T08:39:14.652Z,61.69
2023-03-06T08:41:42.387Z,62.00
2023-03-06T08:44:10.602Z,59.82
2023-03-06T08:46:38.966Z,59.21
2023-03-06T08:49:06.669Z,58.78
2023-03-06T08:51:33.920Z,58.24
2023-03-06T08:54:01.009Z,59.00
2023-03-06T08:56:31.248Z,60.79
2023-03-06T08:59:00.489Z,60.22
2023-03-06T09:01:30.525Z,59.65
2023-03-06T09:04:00.672Z,60.75
2023-03-06T09:06:30.934Z,60.00
2023-03-06T09:08:58.013Z,59.97
2023-03-06T09:11:26.377Z,58.38
2023-03-06T09:13:54.429Z,58.92
2023-03-06T09:16:21.723Z,60.40
2023-03-06T09:18:52.783Z,59.56
2023-03-06T09:21:21.987Z,58.50
2023-03-06T09:23:49.536Z,59.21
2023-03-06T09:26:17.551Z,59.06
2023-03-06T09:28:44.940Z,59.02
2023-03-06T09:31:16.311Z,57.35
2023-03-06T09:33:44.579Z,57.87
2023-03-06T09:36:20.363Z,57.35
2023-03-06T09:38:49.734Z,54.81
2023-03-06T09:41:34.030Z,53.74
2023-03-06T09:44:05.890Z,53.53
2023-03-06T09:46:46.027Z,51.15
2023-03-06T09:49:31.281Z,48.66
2023-03-06T09:52:06.684Z,50.58
2023-03-06T09:54:46.062Z,48.92
2023-03-06T09:57:23.959Z,47.82
2023-03-06T09:59:55.273Z,49.00
2023-03-06T10:02:47.783Z,49.25
2023-03-06T10:05:28.622Z,48.24
2023-03-06T10:08:06.500Z,47.54
2023-03-06T10:10:47.280Z,48.86
2023-03-06T10:13:26.677Z,47.22
2023-03-06T10:16:03.444Z,47.55
2023-03-06T10:18:31.621Z,47.09
2023-03-06T10:21:18.389Z,46.42
2023-03-06T10:23:55.301Z,44.90
2023-03-06T10:26:30.205Z,45.05
2023-03-06T10:29:22.148Z,44.35
2023-03-06T10:31:56.749Z,46.70
2023-03-06T10:34:30.819Z,46.50
2023-03-06T10:37:03.284Z,45.75
2023-03-06T10:39:31.476Z,46.81
2023-03-06T10:41:58.562Z,45.62
2023-03-06T10:48:30.005Z,47.17
2023-03-06T10:51:20.112Z,45.53
2023-03-06T10:53:53.675Z,46.17
2023-03-06T10:56:35.928Z,47.79
2023-03-06T10:59:06.188Z,47.35
2023-03-06T11:01:33.761Z,47.31
2023-03-06T11:04:27.080Z,48.22
2023-03-06T11:07:14.767Z,47.41
2023-03-06T11:10:18.969Z,46.04
2023-03-06T11:13:02.931Z,46.86
2023-03-06T11:15:30.700Z,47.91
2023-03-06T11:18:09.777Z,47.73
2023-03-06T11:20:51.955Z,47.15
2023-03-06T11:23:39.099Z,48.78
2023-03-06T11:26:27.394Z,49.86
2023-03-06T11:29:21.530Z,49.32
2023-03-06T11:32:15.316Z,45.81
2023-03-06T11:34:57.853Z,47.20
2023-03-06T11:37:45.674Z,47.65
2023-03-06T11:40:24.187Z,45.50
2023-03-06T11:43:14.607Z,46.89
2023-03-06T11:45:53.493Z,44.63
2023-03-06T11:48:36.683Z,46.00
2023-03-06T11:51:29.025Z,45.90
2023-03-06T11:53:59.738Z,42.83
2023-03-06T11:57:02.185Z,42.79
2023-03-06T11:59:36.789Z,45.29
2023-03-06T12:02:13.043Z,45.01
2023-03-06T12:04:48.488Z,46.68
2023-03-06T12:07:25.530Z,46.13
2023-03-06T12:10:18.554Z,44.85
2023-03-06T12:13:10.329Z,47.07
2023-03-06T12:15:58.797Z,44.45
2023-03-06T12:18:47.946Z,45.88
2023-03-06T12:21:31.114Z,45.91
2023-03-06T12:24:26.981Z,46.05
2023-03-06T12:27:17.652Z,46.24
2023-03-06T12:30:11.065Z,48.13
2023-03-06T12:33:16.545Z,47.29
2023-03-06T12:35:49.687Z,46.17
2023-03-06T12:38:30.356Z,46.19
2023-03-06T12:41:12.847Z,47.00
2023-03-06T12:44:12.182Z,47.77
2023-03-06T12:46:46.976Z,46.68
2023-03-06T12:49:31.071Z,45.84
2023-03-06T12:52:00.583Z,43.41
2023-03-06T12:54:31.024Z,44.61
2023-03-06T12:57:00.320Z,45.11
2023-03-06T12:59:48.377Z,45.11
2023-03-06T13:02:33.991Z,42.48
2023-03-06T13:05:53.583Z,42.38
2023-03-06T13:08:35.564Z,42.95
2023-03-06T13:11:25.910Z,44.26
2023-03-06T13:13:53.121Z,42.14
2023-03-06T13:16:30.200Z,44.22
2023-03-06T13:19:26.673Z,43.12
2023-03-06T13:21:53.678Z,44.87
2023-03-06T13:24:22.309Z,44.00
2023-03-06T13:26:55.080Z,43.61
2023-03-06T13:29:37.202Z,41.98
2023-03-06T13:32:04.281Z,41.44
2023-03-06T13:34:31.310Z,41.68
2023-03-06T13:37:13.352Z,41.92
2023-03-06T13:39:52.402Z,41.88
2023-03-06T13:42:36.653Z,42.25
2023-03-06T13:45:14.056Z,43.50
2023-03-06T13:48:33.682Z,43.62
2023-03-06T13:50:44.803Z,43.31
2023-03-06T13:53:49.400Z,43.14
2023-03-06T13:56:58.478Z,42.99
2023-03-06T14:00:09.182Z,42.96
2023-03-06T14:02:41.511Z,43.44
2023-03-06T14:05:14.746Z,43.80
2023-03-06T14:07:44.048Z,42.89
2023-03-06T14:10:14.296Z,42.66
2023-03-06T14:12:50.180Z,42.94
2023-03-06T14:15:21.492Z,44.14
2023-03-06T14:17:57.724Z,43.19
2023-03-06T14:20:45.021Z,43.45
2023-03-06T14:23:23.597Z,44.11
2023-03-06T14:29:21.322Z,44.38
2023-03-06T14:31:59.638Z,46.00
2023-03-06T14:34:38.364Z,47.90
2023-03-06T14:37:18.118Z,46.75
2023-03-06T14:39:45.556Z,46.45
2023-03-06T14:42:26.098Z,47.14
2023-03-06T14:45:17.030Z,47.35
2023-03-06T14:47:50.303Z,46.85
2023-03-06T14:50:18.265Z,47.34
2023-03-06T14:52:46.375Z,47.02
2023-03-06T14:55:19.244Z,46.36
2023-03-06T14:57:56.596Z,47.49
2023-03-06T15:00:29.895Z,44.89
2023-03-06T15:02:57.791Z,41.76
2023-03-06T15:05:28.810Z,40.48
2023-03-06T15:08:01.880Z,38.26
2023-03-06T15:10:34.442Z,37.27
2023-03-06T15:13:22.067Z,36.08
2023-03-06T15:16:22.932Z,34.51
2023-03-06T15:18:59.560Z,33.46
2023-03-06T15:21:28.588Z,33.71
2023-03-06T15:23:57.287Z,32.65
2023-03-06T15:26:31.124Z,33.37
2023-03-06T15:29:10.829Z,32.56
2023-03-06T15:31:45.755Z,32.21
2023-03-06T15:34:12.891Z,33.02
2023-03-06T15:36:49.436Z,33.07
2023-03-06T15:39:32.354Z,34.73
2023-03-06T15:42:23.593Z,35.84
2023-03-06T15:44:53.996Z,37.67
2023-03-06T15:47:22.880Z,38.95
2023-03-06T15:49:52.484Z,41.93
2023-03-06T15:52:21.428Z,43.93
2023-03-06T15:54:48.891Z,44.61
2023-03-06T15:57:25.967Z,44.12
2023-03-06T15:59:54.098Z,44.37
2023-03-06T16:02:23.498Z,44.71
2023-03-06T16:04:51.305Z,44.10
2023-03-06T16:07:18.817Z,43.72
2023-03-06T16:09:45.970Z,43.79
2023-03-06T16:12:18.241Z,44.61
2023-03-06T16:14:47.276Z,46.06
2023-03-06T16:17:15.573Z,45.99
2023-03-06T16:19:43.597Z,46.88
2023-03-06T16:22:10.907Z,47.54
2023-03-06T16:24:38.075Z,46.83
2023-03-06T16:27:06.820Z,47.39
2023-03-06T16:29:35.091Z,48.08
2023-03-06T16:32:02.536Z,49.60
2023-03-06T16:34:29.986Z,50.45
2023-03-06T16:36:57.124Z,50.82
2023-03-06T16:39:24.524Z,50.99
2023-03-06T16:41:52.359Z,52.54
2023-03-06T16:44:20.495Z,52.97
2023-03-06T16:46:49.642Z,53.74
2023-03-06T16:49:22.401Z,54.00
2023-03-06T16:51:50.064Z,54.50
2023-03-06T16:54:17.241Z,55.31
2023-03-06T16:56:44.860Z,56.08
2023-03-06T16:59:12.226Z,57.56
2023-03-06T17:01:42.600Z,57.87
2023-03-06T17:04:10.299Z,58.11
2023-03-06T17:06:37.942Z,58.76
2023-03-06T17:09:05.337Z,60.12
2023-03-06T17:11:32.453Z,59.70
2023-03-06T17:13:59.571Z,57.75
2023-03-06T17:16:26.658Z,58.07
2023-03-06T17:18:54.808Z,59.03
2023-03-06T17:21:21.998Z,59.38
2023-03-06T17:23:50.774Z,61.00
2023-03-06T17:26:19.278Z,61.16
2023-03-06T17:32:18.927Z,61.93
2023-03-06T17:34:46.388Z,61.74
2023-03-06T17:37:13.724Z,59.47
2023-03-06T17:39:41.291Z,59.01
2023-03-06T17:42:09.033Z,58.42
2023-03-06T17:44:38.730Z,58.68
2023-03-06T17:47:06.304Z,59.64
2023-03-06T17:49:33.700Z,59.50
2023-03-06T17:52:02.872Z,58.75
2023-03-06T17:54:30.377Z,59.24
2023-03-06T17:57:01.108Z,59.78
2023-03-06T17:59:28.677Z,60.77
2023-03-06T18:02:00.068Z,60.66
2023-03-06T18:04:27.507Z,61.36
2023-03-06T18:06:55.017Z,61.84
2023-03-06T18:09:22.434Z,61.92
2023-03-06T18:11:49.797Z,62.07
2023-03-06T18:14:17.197Z,62.42
2023-03-06T18:16:44.608Z,62.46
2023-03-06T18:19:12.067Z,62.45
2023-03-06T18:21:39.878Z,63.23
2023-03-06T18:24:07.760Z,63.25
2023-03-06T18:26:35.327Z,63.07
2023-03-06T18:29:04.591Z,63.84
2023-03-06T18:31:34.925Z,62.86
2023-03-06T18:34:05.122Z,62.60
2023-03-06T18:36:33.449Z,63.17
2023-03-06T18:39:03.830Z,62.88
2023-03-06T18:41:32.188Z,63.31
2023-03-06T18:44:00.870Z,63.34
2023-03-06T18:46:36.733Z,63.30
2023-03-06T18:49:05.221Z,64.17
2023-03-06T18:51:32.997Z,64.07
2023-03-06T18:54:02.134Z,65.11
2023-03-06T18:56:30.109Z,65.32
2023-03-06T18:59:04.739Z,66.00
2023-03-06T19:01:32.680Z,66.96
2023-03-06T19:04:02.115Z,67.99
2023-03-06T19:06:29.938Z,68.29
2023-03-06T19:08:58.839Z,67.39
2023-03-06T19:11:27.156Z,67.47
2023-03-06T19:13:54.912Z,67.13
2023-03-06T19:16:25.228Z,66.98
2023-03-06T19:18:55.228Z,66.35
2023-03-06T19:21:24.606Z,66.34
2023-03-06T19:23:52.324Z,66.96
2023-03-06T19:26:19.872Z,67.10
2023-03-06T19:28:48.152Z,67.63
2023-03-06T19:31:19.579Z,67.38
2023-03-06T19:33:49.446Z,68.74
2023-03-06T19:36:19.568Z,68.85
2023-03-06T19:38:52.583Z,69.68
2023-03-06T19:41:19.897Z,69.77
2023-03-06T19:43:52.255Z,69.32
2023-03-06T19:46:21.337Z,68.29
2023-03-06T19:48:49.022Z,68.28
2023-03-06T19:51:16.348Z,68.27
2023-03-06T19:53:43.663Z,68.04
2023-03-06T19:56:18.196Z,68.72
2023-03-06T19:58:45.536Z,68.74
2023-03-06T20:01:15.646Z,68.09
2023-03-06T20:03:43.814Z,68.03
2023-03-06T20:06:17.413Z,68.48
2023-03-06T20:08:45.905Z,68.39
2023-03-06T20:11:18.448Z,68.96
2023-03-06T20:13:47.833Z,68.70
2023-03-06T20:16:16.763Z,69.70
2023-03-06T20:18:45.470Z,70.32
2023-03-06T20:21:13.696Z,70.66
2023-03-06T20:23:41.774Z,70.53
2023-03-06T20:26:12.448Z,70.76
2023-03-06T20:28:41.526Z,71.33
2023-03-06T20:31:17.538Z,70.91
2023-03-06T20:33:46.661Z,71.61
2023-03-06T20:36:20.094Z,71.62
2023-03-06T20:38:47.963Z,72.39
2023-03-06T20:41:17.273Z,72.40
2023-03-06T20:43:45.008Z,72.54
2023-03-06T20:46:13.204Z,73.26
2023-03-06T20:48:41.638Z,73.40
2023-03-06T20:51:31.520Z,72.90
2023-03-06T20:54:01.257Z,74.14
2023-03-06T20:56:31.408Z,76.18
2023-03-06T20:58:59.149Z,75.78
2023-03-06T21:01:34.825Z,76.11
2023-03-06T21:04:04.465Z,76.20
2023-03-06T21:06:32.802Z,75.92
2023-03-06T21:09:01.150Z,75.64
2023-03-06T21:11:28.881Z,74.03
2023-03-06T21:13:56.916Z,74.04
2023-03-06T21:16:26.147Z,74.78
2023-03-06T21:18:57.477Z,75.37
2023-03-06T21:21:27.919Z,75.51
2023-03-06T21:23:57.580Z,75.58
2023-03-06T21:26:28.025Z,75.52
2023-03-06T21:28:58.976Z,76.19
2023-03-06T21:31:28.362Z,76.63
2023-03-06T21:33:56.544Z,77.04
2023-03-06T21:36:24.421Z,77.15
2023-03-06T21:38:53.101Z,78.17
2023-03-06T21:41:26.146Z,77.62
2023-03-06T21:43:59.030Z,77.43
2023-03-06T21:46:27.688Z,76.75
2023-03-06T21:48:55.106Z,76.86
2023-03-06T21:51:24.135Z,77.60
2023-03-06T21:53:52.970Z,78.68
2023-03-06T21:56:22.717Z,80.12
2023-03-06T21:58:50.026Z,80.68
2023-03-06T22:01:19.913Z,80.55
2023-03-06T22:03:47.557Z,80.94
2023-03-06T22:06:20.957Z,80.84
2023-03-06T22:08:48.534Z,80.40
2023-03-06T22:11:18.581Z,80.18
2023-03-06T22:13:46.261Z,80.37
2023-03-06T22:16:14.541Z,81.25
2023-03-06T22:18:46.640Z,82.04
2023-03-06T22:21:16.075Z,82.02
2023-03-06T22:23:43.799Z,82.02
2023-03-06T22:26:13.724Z,82.02
2023-03-06T22:28:41.847Z,82.17
2023-03-06T22:31:15.238Z,81.27
2023-03-06T22:33:43.119Z,81.42
2023-03-06T22:36:13.444Z,80.88
2023-03-06T22:38:43.076Z,81.62
2023-03-06T22:41:12.007Z,81.71
2023-03-06T22:43:39.438Z,82.23
2023-03-06T22:46:13.386Z,81.01
2023-03-06T22:48:41.193Z,81.44
2023-03-06T22:51:11.578Z,80.94
2023-03-06T22:53:39.562Z,82.38
2023-03-06T22:56:09.791Z,82.65
2023-03-06T22:58:37.821Z,82.42
2023-03-06T23:01:09.865Z,82.26
2023-03-06T23:03:39.736Z,81.83
2023-03-06T23:06:22.406Z,82.51
2023-03-06T23:08:52.830Z,81.51
2023-03-06T23:11:20.911Z,82.35
2023-03-06T23:14:06.740Z,82.43
2023-03-06T23:16:52.679Z,82.63
2023-03-06T23:19:38.629Z,82.59
2023-03-06T23:22:24.450Z,82.49
2023-03-06T23:25:10.469Z,82.05
2023-03-06T23:27:38.028Z,81.44
2023-03-06T23:30:06.470Z,81.48
2023-03-06T23:32:34.086Z,81.71
2023-03-06T23:35:01.533Z,80.83
2023-03-06T23:37:28.868Z,81.91
2023-03-06T23:39:56.377Z,82.98
2023-03-06T23:42:23.784Z,83.90
2023-03-06T23:44:52.185Z,83.79
2023-03-06T23:47:20.187Z,84.51
2023-03-06T23:49:47.508Z,84.30
2023-03-06T23:52:14.860Z,84.26
2023-03-06T23:54:42.230Z,84.68
2023-03-06T23:57:09.719Z,83.52
2023-03-06T23:59:37.221Z,84.20
